createdAt,value
2023-03-01T00:01:49.646Z,71.42
2023-03-01T00:04:18.174Z,71.29
2023-03-01T00:06:47.127Z,71.20
2023-03-01T00:09:15.932Z,71.01
2023-03-01T00:11:44.543Z,70.86
2023-03-01T00:14:17.274Z,70.72
2023-03-01T00:16:48.011Z,71.01
2023-03-01T00:19:19.106Z,71.04
2023-03-01T00:21:47.744Z,71.25
2023-03-01T00:24:16.635Z,71.25
2023-03-01T00:26:45.423Z,71.18
2023-03-01T00:29:15.168Z,71.36
2023-03-01T00:31:43.584Z,71.50
2023-03-01T00:34:12.249Z,71.47
2023-03-01T00:36:41.027Z,71.25
2023-03-01T00:39:14.439Z,71.52
2023-03-01T00:41:43.109Z,72.01
2023-03-01T00:44:12.317Z,72.12
2023-03-01T00:46:42.251Z,71.83
2023-03-01T00:49:10.692Z,72.05
2023-03-01T00:51:40.395Z,72.29
2023-03-01T00:54:11.116Z,72.15
2023-03-01T00:56:39.623Z,72.22
2023-03-01T00:59:08.048Z,72.76
2023-03-01T01:01:36.602Z,72.35
2023-03-01T01:04:12.494Z,72.46
2023-03-01T01:06:43.962Z,72.59
2023-03-01T01:09:18.267Z,72.38
2023-03-01T01:11:48.120Z,72.06
2023-03-01T01:14:17.122Z,72.21
2023-03-01T01:16:45.474Z,72.21
2023-03-01T01:19:16.394Z,72.04
2023-03-01T01:21:45.969Z,71.99
2023-03-01T01:24:14.684Z,71.78
2023-03-01T01:26:43.806Z,71.73
2023-03-01T01:29:12.913Z,71.68
2023-03-01T01:31:43.735Z,71.83
2023-03-01T01:34:23.182Z,71.94
2023-03-01T01:36:54.374Z,72.60
2023-03-01T01:39:22.989Z,72.13
2023-03-01T01:41:51.452Z,72.37
2023-03-01T01:44:24.468Z,72.07
2023-03-01T01:46:58.240Z,72.32
2023-03-01T01:49:35.805Z,72.46
2023-03-01T01:52:12.339Z,72.55
2023-03-01T01:54:46.897Z,72.30
2023-03-01T01:57:20.519Z,72.04
2023-03-01T01:59:53.763Z,72.21
2023-03-01T02:02:22.819Z,72.00
2023-03-01T02:05:04.688Z,71.80
2023-03-01T02:07:33.314Z,71.95
2023-03-01T02:10:01.804Z,72.05
2023-03-01T02:12:31.364Z,72.46
2023-03-01T02:14:59.910Z,72.33
2023-03-01T02:17:28.308Z,72.08
2023-03-01T02:20:17.046Z,72.17
2023-03-01T02:22:47.581Z,72.34
2023-03-01T02:25:29.672Z,72.63
2023-03-01T02:28:05.364Z,72.73
2023-03-01T02:30:35.896Z,72.59
2023-03-01T02:33:05.562Z,72.23
2023-03-01T02:35:39.844Z,71.77
2023-03-01T02:38:11.005Z,71.58
2023-03-01T02:40:41.849Z,71.33
2023-03-01T02:43:12.467Z,70.92
2023-03-01T02:45:51.657Z,71.04
2023-03-01T02:48:20.666Z,71.73
2023-03-01T02:51:06.639Z,71.80
2023-03-01T02:53:43.150Z,71.87
2023-03-01T02:56:13.919Z,72.23
2023-03-01T02:58:46.727Z,72.24
2023-03-01T03:01:17.392Z,72.44
2023-03-01T03:03:46.401Z,72.12
2023-03-01T03:06:15.734Z,72.42
2023-03-01T03:08:45.029Z,73.00
2023-03-01T03:11:13.486Z,73.74
2023-03-01T03:13:49.033Z,74.06
2023-03-01T03:16:19.659Z,74.12
2023-03-01T03:18:48.675Z,74.67
2023-03-01T03:21:17.387Z,74.53
2023-03-01T03:23:46.431Z,74.76
2023-03-01T03:26:16.121Z,74.54
2023-03-01T03:28:44.588Z,74.58
2023-03-01T03:31:13.213Z,74.71
2023-03-01T03:33:43.012Z,74.42
2023-03-01T03:36:13.983Z,74.04
2023-03-01T03:38:42.752Z,74.30
2023-03-01T03:41:11.291Z,74.83
2023-03-01T03:43:41.672Z,74.97
2023-03-01T03:46:10.773Z,74.91
2023-03-01T03:48:43.749Z,75.11
2023-03-01T03:51:14.275Z,74.41
2023-03-01T03:53:43.633Z,74.90
2023-03-01T03:56:12.694Z,75.20
2023-03-01T03:58:41.205Z,75.02
2023-03-01T04:01:09.740Z,75.06
2023-03-01T04:03:38.158Z,75.28
2023-03-01T04:06:08.504Z,75.24
2023-03-01T04:08:36.848Z,75.35
2023-03-01T04:11:20.665Z,75.63
2023-03-01T04:13:49.229Z,75.50
2023-03-01T04:16:17.780Z,75.78
2023-03-01T04:18:47.057Z,75.70
2023-03-01T04:21:16.942Z,75.82
2023-03-01T04:23:45.285Z,75.63
2023-03-01T04:26:13.725Z,75.91
2023-03-01T04:28:46.282Z,75.73
2023-03-01T04:31:18.544Z,76.09
2023-03-01T04:33:49.709Z,75.90
2023-03-01T04:36:20.973Z,76.69
2023-03-01T04:38:49.512Z,76.67
2023-03-01T04:41:20.460Z,76.98
2023-03-01T04:43:50.381Z,76.89
2023-03-01T04:46:21.413Z,76.76
2023-03-01T04:48:50.278Z,76.79
2023-03-01T04:51:20.164Z,76.92
2023-03-01T04:53:49.200Z,76.98
2023-03-01T04:56:19.016Z,77.34
2023-03-01T04:58:48.094Z,77.43
2023-03-01T05:01:18.385Z,77.10
2023-03-01T05:03:48.516Z,77.48
2023-03-01T05:06:19.563Z,77.72
2023-03-01T05:08:48.122Z,77.85
2023-03-01T05:11:16.479Z,78.01
2023-03-01T05:13:44.856Z,78.03
2023-03-01T05:16:13.475Z,77.85
2023-03-01T05:18:42.854Z,77.80
2023-03-01T05:21:14.095Z,77.87
2023-03-01T05:23:44.015Z,78.02
2023-03-01T05:26:27.402Z,77.80
2023-03-01T05:29:00.612Z,77.56
2023-03-01T05:31:31.791Z,77.88
2023-03-01T05:34:00.561Z,77.63
2023-03-01T05:36:29.484Z,77.32
2023-03-01T05:38:59.528Z,77.40
2023-03-01T05:41:28.014Z,77.48
2023-03-01T05:43:56.418Z,76.89
2023-03-01T05:46:25.645Z,77.06
2023-03-01T05:48:54.228Z,77.14
2023-03-01T05:51:23.251Z,77.14
2023-03-01T05:53:51.641Z,77.15
2023-03-01T05:56:23.332Z,76.66
2023-03-01T05:58:51.868Z,76.53
2023-03-01T06:01:20.396Z,76.30
2023-03-01T06:03:48.849Z,76.44
2023-03-01T06:06:17.296Z,76.50
2023-03-01T06:08:45.864Z,76.51
2023-03-01T06:11:14.489Z,76.84
2023-03-01T06:13:45.765Z,76.91
2023-03-01T06:16:15.181Z,76.54
2023-03-01T06:18:43.920Z,76.67
2023-03-01T06:21:12.437Z,76.65
2023-03-01T06:23:40.926Z,76.56
2023-03-01T06:26:10.513Z,76.46
2023-03-01T06:28:39.318Z,76.39
2023-03-01T06:31:10.702Z,76.74
2023-03-01T06:33:39.230Z,76.63
2023-03-01T06:36:09.118Z,76.76
2023-03-01T06:38:37.735Z,76.45
2023-03-01T06:41:06.490Z,76.51
2023-03-01T06:43:35.017Z,76.41
2023-03-01T06:46:08.922Z,76.29
2023-03-01T06:48:37.581Z,75.47
2023-03-01T06:51:06.617Z,75.83
2023-03-01T06:53:35.045Z,75.39
2023-03-01T06:56:03.553Z,75.17
2023-03-01T06:58:32.271Z,74.91
2023-03-01T07:01:00.695Z,74.74
2023-03-01T07:05:58.925Z,74.53
2023-03-01T07:08:27.581Z,74.56
2023-03-01T07:10:58.261Z,74.67
2023-03-01T07:13:26.984Z,74.39
2023-03-01T07:15:55.772Z,74.55
2023-03-01T07:18:24.525Z,74.57
2023-03-01T07:20:54.506Z,74.37
2023-03-01T07:23:22.975Z,74.56
2023-03-01T07:25:55.155Z,74.15
2023-03-01T07:28:25.205Z,74.45
2023-03-01T07:30:53.631Z,74.73
2023-03-01T07:33:22.431Z,74.81
2023-03-01T07:35:50.915Z,76.52
2023-03-01T07:38:20.686Z,75.36
2023-03-01T07:40:49.111Z,75.40
2023-03-01T07:43:17.550Z,75.00
2023-03-01T07:45:46.249Z,74.89
2023-03-01T07:48:14.762Z,74.98
2023-03-01T07:50:43.151Z,76.61
2023-03-01T07:53:12.027Z,74.80
2023-03-01T07:55:41.919Z,74.87
2023-03-01T07:58:10.397Z,74.10
2023-03-01T08:00:38.896Z,74.12
2023-03-01T08:03:07.349Z,73.94
2023-03-01T08:05:35.734Z,73.45
2023-03-01T08:08:04.111Z,73.41
2023-03-01T08:10:32.445Z,72.70
2023-03-01T08:13:02.831Z,72.50
2023-03-01T08:15:31.328Z,71.48
2023-03-01T08:17:59.721Z,71.13
2023-03-01T08:20:28.187Z,71.00
2023-03-01T08:22:56.594Z,70.90
2023-03-01T08:25:25.209Z,70.15
2023-03-01T08:27:53.579Z,69.70
2023-03-01T08:30:24.976Z,69.26
2023-03-01T08:32:53.703Z,68.93
2023-03-01T08:35:23.585Z,68.66
2023-03-01T08:37:52.045Z,68.46
2023-03-01T08:40:20.742Z,68.46
2023-03-01T08:42:49.230Z,67.92
2023-03-01T08:45:19.227Z,67.47
2023-03-01T08:47:48.990Z,65.61
2023-03-01T08:50:18.174Z,63.11
2023-03-01T08:52:46.569Z,60.70
2023-03-01T08:55:16.071Z,58.29
2023-03-01T08:57:44.519Z,57.05
2023-03-01T09:00:15.989Z,57.12
2023-03-01T09:02:44.596Z,55.79
2023-03-01T09:05:14.315Z,55.19
2023-03-01T09:07:42.707Z,54.37
2023-03-01T09:10:12.942Z,53.89
2023-03-01T09:12:41.302Z,52.92
2023-03-01T09:15:11.608Z,52.41
2023-03-01T09:17:40.041Z,51.38
2023-03-01T09:20:09.431Z,50.44
2023-03-01T09:22:39.159Z,49.40
2023-03-01T09:25:08.768Z,49.34
2023-03-01T09:27:37.222Z,49.21
2023-03-01T09:30:06.972Z,49.87
2023-03-01T09:32:35.529Z,50.02
2023-03-01T09:35:05.695Z,49.81
2023-03-01T09:37:35.317Z,49.86
2023-03-01T09:40:06.694Z,50.00
2023-03-01T09:42:37.791Z,49.55
2023-03-01T09:45:13.421Z,50.21
2023-03-01T09:47:43.452Z,49.88
2023-03-01T09:50:17.878Z,49.38
2023-03-01T09:52:52.463Z,49.97
2023-03-01T09:55:34.017Z,49.11
2023-03-01T09:58:16.400Z,48.52
2023-03-01T10:00:47.353Z,48.23
2023-03-01T10:03:24.987Z,48.03
2023-03-01T10:06:03.089Z,48.09
2023-03-01T10:08:42.656Z,47.33
2023-03-01T10:11:25.289Z,47.95
2023-03-01T10:14:01.623Z,48.17
2023-03-01T10:16:42.974Z,46.93
2023-03-01T10:19:17.475Z,46.60
2023-03-01T10:21:48.309Z,47.50
2023-03-01T10:24:21.051Z,47.52
2023-03-01T10:26:57.646Z,46.69
2023-03-01T10:29:33.041Z,46.48
2023-03-01T10:32:01.525Z,45.83
2023-03-01T10:34:33.030Z,46.06
2023-03-01T10:37:12.087Z,46.47
2023-03-01T10:39:59.298Z,45.89
2023-03-01T10:42:34.690Z,45.57
2023-03-01T10:45:22.319Z,45.10
2023-03-01T10:48:07.686Z,44.98
2023-03-01T10:50:38.910Z,45.47
2023-03-01T10:53:30.333Z,45.47
2023-03-01T10:56:02.967Z,45.06
2023-03-01T10:58:34.735Z,45.18
2023-03-01T11:01:06.362Z,45.06
2023-03-01T11:03:37.840Z,44.61
2023-03-01T11:06:22.786Z,44.77
2023-03-01T11:08:53.042Z,43.39
2023-03-01T11:11:32.378Z,43.94
2023-03-01T11:14:23.589Z,43.66
2023-03-01T11:17:04.336Z,42.74
2023-03-01T11:19:33.607Z,42.26
2023-03-01T11:22:06.397Z,41.59
2023-03-01T11:24:43.788Z,42.12
2023-03-01T11:27:27.301Z,40.27
2023-03-01T11:30:02.087Z,41.09
2023-03-01T11:32:38.266Z,41.30
2023-03-01T11:35:17.545Z,40.37
2023-03-01T11:38:01.262Z,39.76
2023-03-01T11:40:36.335Z,40.07
2023-03-01T11:43:15.836Z,39.03
2023-03-01T11:46:05.886Z,38.15
2023-03-01T11:48:59.935Z,38.42
2023-03-01T11:51:44.383Z,38.06
2023-03-01T11:54:30.804Z,37.43
2023-03-01T11:57:07.720Z,37.66
2023-03-01T12:00:05.389Z,37.96
2023-03-01T12:03:09.071Z,37.56
2023-03-01T12:06:16.047Z,37.99
2023-03-01T12:08:51.510Z,37.43
2023-03-01T12:11:39.528Z,37.16
2023-03-01T12:14:53.783Z,38.00
2023-03-01T12:18:08.081Z,38.68
2023-03-01T12:20:44.471Z,37.95
2023-03-01T12:23:47.137Z,37.47
2023-03-01T12:26:28.407Z,37.61
2023-03-01T12:29:18.800Z,37.76
2023-03-01T12:32:19.269Z,37.64
2023-03-01T12:35:22.571Z,38.43
2023-03-01T12:38:00.453Z,36.51
2023-03-01T12:41:23.569Z,37.22
2023-03-01T12:44:06.267Z,37.51
2023-03-01T12:46:53.763Z,37.40
2023-03-01T12:49:27.969Z,37.53
2023-03-01T12:52:04.079Z,38.11
2023-03-01T12:54:35.767Z,38.06
2023-03-01T12:57:14.680Z,38.71
2023-03-01T12:59:53.766Z,38.14
2023-03-01T13:02:28.794Z,37.42
2023-03-01T13:05:09.717Z,37.25
2023-03-01T13:07:45.713Z,37.59
2023-03-01T13:10:23.933Z,37.18
2023-03-01T13:13:10.966Z,37.54
2023-03-01T13:15:40.556Z,37.03
2023-03-01T13:18:34.192Z,36.87
2023-03-01T13:21:06.554Z,38.35
2023-03-01T13:23:39.539Z,38.90
2023-03-01T13:26:15.407Z,39.13
2023-03-01T13:28:53.054Z,39.14
2023-03-01T13:32:01.725Z,39.38
2023-03-01T13:35:04.448Z,40.07
2023-03-01T13:37:36.980Z,40.38
2023-03-01T13:41:00.972Z,40.69
2023-03-01T13:43:33.960Z,40.46
2023-03-01T13:46:12.175Z,40.78
2023-03-01T13:48:41.875Z,41.21
2023-03-01T13:51:13.264Z,40.74
2023-03-01T13:53:45.372Z,40.67
2023-03-01T13:56:19.791Z,40.80
2023-03-01T13:58:54.811Z,40.74
2023-03-01T14:01:30.626Z,41.03
2023-03-01T14:04:00.638Z,40.88
2023-03-01T14:06:32.420Z,40.98
2023-03-01T14:09:12.650Z,41.34
2023-03-01T14:12:14.329Z,40.98
2023-03-01T14:14:55.463Z,40.28
2023-03-01T14:17:58.417Z,40.42
2023-03-01T14:20:30.041Z,40.76
2023-03-01T14:23:02.080Z,41.11
2023-03-01T14:25:33.248Z,40.90
2023-03-01T14:28:16.774Z,41.29
2023-03-01T14:30:48.036Z,40.96
2023-03-01T14:33:25.057Z,40.92
2023-03-01T14:36:00.671Z,40.89
2023-03-01T14:38:37.134Z,41.38
2023-03-01T14:41:09.571Z,41.07
2023-03-01T14:43:42.236Z,41.15
2023-03-01T14:46:22.062Z,41.08
2023-03-01T14:48:52.912Z,40.98
2023-03-01T14:51:21.358Z,41.23
2023-03-01T14:53:51.483Z,41.36
2023-03-01T14:56:20.488Z,41.13
2023-03-01T14:58:54.533Z,41.68
2023-03-01T15:01:24.265Z,41.61
2023-03-01T15:03:53.683Z,41.44
2023-03-01T15:06:24.490Z,41.66
2023-03-01T15:08:57.840Z,41.50
2023-03-01T15:11:31.195Z,41.32
2023-03-01T15:14:01.744Z,41.33
2023-03-01T15:16:33.286Z,41.26
2023-03-01T15:19:05.140Z,41.65
2023-03-01T15:21:35.757Z,41.58
2023-03-01T15:24:20.398Z,41.53
2023-03-01T15:26:56.393Z,41.35
2023-03-01T15:29:30.899Z,41.56
2023-03-01T15:32:02.326Z,41.07
2023-03-01T15:34:34.470Z,40.74
2023-03-01T15:37:06.601Z,41.25
2023-03-01T15:39:39.371Z,40.59
2023-03-01T15:42:12.603Z,41.04
2023-03-01T15:44:46.867Z,41.21
2023-03-01T15:47:41.538Z,41.26
2023-03-01T15:50:21.725Z,41.15
2023-03-01T15:52:51.106Z,41.20
2023-03-01T15:55:25.781Z,41.34
2023-03-01T15:58:02.608Z,41.37
2023-03-01T16:00:32.701Z,41.49
2023-03-01T16:03:01.370Z,41.39
2023-03-01T16:05:33.962Z,41.68
2023-03-01T16:08:02.967Z,41.72
2023-03-01T16:10:32.490Z,42.24
2023-03-01T16:13:01.163Z,42.46
2023-03-01T16:15:36.768Z,42.12
2023-03-01T16:18:06.349Z,42.57
2023-03-01T16:20:34.897Z,42.51
2023-03-01T16:23:10.259Z,42.62
2023-03-01T16:25:39.007Z,42.99
2023-03-01T16:28:10.313Z,42.86
2023-03-01T16:30:41.415Z,42.71
2023-03-01T16:33:26.260Z,42.88
2023-03-01T16:36:00.994Z,42.81
2023-03-01T16:38:29.804Z,42.79
2023-03-01T16:40:58.222Z,42.88
2023-03-01T16:43:26.917Z,43.05
2023-03-01T16:45:57.116Z,43.15
2023-03-01T16:48:25.540Z,43.09
2023-03-01T16:51:02.137Z,43.43
2023-03-01T16:53:31.157Z,43.65
2023-03-01T16:56:00.789Z,43.67
2023-03-01T16:58:29.314Z,43.87
2023-03-01T17:01:01.982Z,44.02
2023-03-01T17:03:30.752Z,44.23
2023-03-01T17:05:59.337Z,44.41
2023-03-01T17:08:27.724Z,44.88
2023-03-01T17:10:56.100Z,44.75
2023-03-01T17:13:26.182Z,44.89
2023-03-01T17:15:54.809Z,45.19
2023-03-01T17:18:25.241Z,45.18
2023-03-01T17:20:53.712Z,45.76
2023-03-01T17:23:22.160Z,45.74
2023-03-01T17:25:50.675Z,46.15
2023-03-01T17:28:19.059Z,46.32
2023-03-01T17:30:48.682Z,46.66
2023-03-01T17:33:17.452Z,47.03
2023-03-01T17:35:47.635Z,47.26
2023-03-01T17:38:16.723Z,47.65
2023-03-01T17:40:47.044Z,47.83
2023-03-01T17:43:17.436Z,47.89
2023-03-01T17:45:48.708Z,48.15
2023-03-01T17:48:18.264Z,48.71
2023-03-01T17:50:48.695Z,48.61
2023-03-01T17:53:17.618Z,48.85
2023-03-01T17:55:49.706Z,48.79
2023-03-01T17:58:22.702Z,49.26
2023-03-01T18:00:51.601Z,49.38
2023-03-01T18:03:21.684Z,49.41
2023-03-01T18:05:51.826Z,49.63
2023-03-01T18:08:20.332Z,49.97
2023-03-01T18:10:48.758Z,49.93
2023-03-01T18:13:17.623Z,50.02
2023-03-01T18:15:46.021Z,50.19
2023-03-01T18:18:14.490Z,49.90
2023-03-01T18:20:42.977Z,50.22
2023-03-01T18:23:12.734Z,50.29
2023-03-01T18:25:41.536Z,50.24
2023-03-01T18:28:09.979Z,50.42
2023-03-01T18:30:38.588Z,50.46
2023-03-01T18:33:07.064Z,50.22
2023-03-01T18:35:38.205Z,50.27
2023-03-01T18:38:07.057Z,50.43
2023-03-01T18:40:37.026Z,49.89
2023-03-01T18:43:05.623Z,50.13
2023-03-01T18:45:34.086Z,50.33
2023-03-01T18:48:03.700Z,50.50
2023-03-01T18:50:32.191Z,50.75
2023-03-01T18:53:00.658Z,50.88
2023-03-01T18:55:29.120Z,50.97
2023-03-01T18:57:59.160Z,50.89
2023-03-01T19:00:27.943Z,51.18
2023-03-01T19:02:57.580Z,51.43
2023-03-01T19:05:26.188Z,51.43
2023-03-01T19:07:54.860Z,51.26
2023-03-01T19:10:24.135Z,51.75
2023-03-01T19:12:52.749Z,51.87
2023-03-01T19:15:23.210Z,51.66
2023-03-01T19:17:53.579Z,51.56
2023-03-01T19:20:22.985Z,51.50
2023-03-01T19:22:52.064Z,51.54
2023-03-01T19:25:20.550Z,52.17
2023-03-01T19:27:49.579Z,52.00
2023-03-01T19:30:18.754Z,52.09
2023-03-01T19:32:48.648Z,52.33
2023-03-01T19:35:17.318Z,52.55
2023-03-01T19:37:45.946Z,52.84
2023-03-01T19:40:14.876Z,53.05
2023-03-01T19:42:43.354Z,53.27
2023-03-01T19:45:12.841Z,53.51
2023-03-01T19:47:41.343Z,53.60
2023-03-01T19:50:13.787Z,54.13
2023-03-01T19:52:42.364Z,54.19
2023-03-01T19:55:12.137Z,54.16
2023-03-01T19:57:40.678Z,54.44
2023-03-01T20:00:11.070Z,54.90
2023-03-01T20:02:42.558Z,55.15
2023-03-01T20:05:12.908Z,55.44
2023-03-01T20:07:41.420Z,55.87
2023-03-01T20:10:12.141Z,56.41
2023-03-01T20:12:40.632Z,56.54
2023-03-01T20:15:10.453Z,56.44
2023-03-01T20:17:38.954Z,56.76
2023-03-01T20:20:08.462Z,56.83
2023-03-01T20:22:38.365Z,57.21
2023-03-01T20:25:09.070Z,57.77
2023-03-01T20:27:37.475Z,57.96
2023-03-01T20:30:08.158Z,58.20
2023-03-01T20:32:36.727Z,58.48
2023-03-01T20:35:06.020Z,58.69
2023-03-01T20:37:34.535Z,58.63
2023-03-01T20:40:05.332Z,58.80
2023-03-01T20:42:33.902Z,58.64
2023-03-01T20:45:02.431Z,58.81
2023-03-01T20:47:31.606Z,58.77
2023-03-01T20:50:01.604Z,58.86
2023-03-01T20:52:36.648Z,58.89
2023-03-01T20:55:13.208Z,59.00
2023-03-01T20:57:42.083Z,59.27
2023-03-01T21:00:12.525Z,59.79
2023-03-01T21:02:41.086Z,59.26
2023-03-01T21:05:10.635Z,59.96
2023-03-01T21:07:39.077Z,60.03
2023-03-01T21:10:08.245Z,60.04
2023-03-01T21:12:38.099Z,60.27
2023-03-01T21:15:09.741Z,59.50
2023-03-01T21:17:39.673Z,59.55
2023-03-01T21:20:11.166Z,59.49
2023-03-01T21:22:39.674Z,59.58
2023-03-01T21:25:09.054Z,59.35
2023-03-01T21:27:41.794Z,59.55
2023-03-01T21:30:12.286Z,59.51
2023-03-01T21:32:40.855Z,59.16
2023-03-01T21:35:10.425Z,58.99
2023-03-01T21:37:38.948Z,59.28
2023-03-01T21:40:09.467Z,65.79
2023-03-01T21:42:38.773Z,64.30
2023-03-01T21:45:10.347Z,70.82
2023-03-01T21:47:39.459Z,60.62
2023-03-01T21:50:10.062Z,59.57
2023-03-01T21:52:38.596Z,61.70
2023-03-01T21:55:09.158Z,59.43
2023-03-01T21:57:43.675Z,59.88
2023-03-01T22:00:16.921Z,59.19
2023-03-01T22:02:45.421Z,58.75
2023-03-01T22:05:13.914Z,57.50
2023-03-01T22:07:42.488Z,57.43
2023-03-01T22:10:12.493Z,58.17
2023-03-01T22:12:41.583Z,58.53
2023-03-01T22:15:11.132Z,58.50
2023-03-01T22:17:41.146Z,58.71
2023-03-01T22:20:11.816Z,59.07
2023-03-01T22:22:40.328Z,59.21
2023-03-01T22:25:10.686Z,59.34
2023-03-01T22:27:39.441Z,59.55
2023-03-01T22:30:11.982Z,59.79
2023-03-01T22:32:42.743Z,59.88
2023-03-01T22:35:11.907Z,60.27
2023-03-01T22:37:40.692Z,60.51
2023-03-01T22:40:11.122Z,60.28
2023-03-01T22:42:39.608Z,60.72
2023-03-01T22:45:09.369Z,61.17
2023-03-01T22:47:38.769Z,60.84
2023-03-01T22:50:13.559Z,60.44
2023-03-01T22:52:41.964Z,60.26
2023-03-01T22:55:11.801Z,60.42
2023-03-01T22:57:40.593Z,60.56
2023-03-01T23:00:13.305Z,60.66
2023-03-01T23:02:42.020Z,60.44
2023-03-01T23:05:13.249Z,60.70
2023-03-01T23:07:41.785Z,61.22
2023-03-01T23:10:12.352Z,61.04
2023-03-01T23:12:41.170Z,61.26
2023-03-01T23:15:11.574Z,61.27
2023-03-01T23:17:40.169Z,61.45
2023-03-01T23:20:10.800Z,62.07
2023-03-01T23:22:40.579Z,61.33
2023-03-01T23:25:12.470Z,61.41
2023-03-01T23:27:41.076Z,61.95
2023-03-01T23:30:11.407Z,61.60
2023-03-01T23:32:40.676Z,61.27
2023-03-01T23:35:11.137Z,61.10
2023-03-01T23:37:41.016Z,61.72
2023-03-01T23:40:12.165Z,61.45
2023-03-01T23:42:40.764Z,61.39
2023-03-01T23:45:10.820Z,61.92
2023-03-01T23:47:39.249Z,61.82
2023-03-01T23:50:09.538Z,61.93
2023-03-01T23:52:42.530Z,62.25
2023-03-01T23:55:17.805Z,62.49
2023-03-01T23:58:03.522Z,62.53
